sensor_id;sensor_type;location;lat;lon;timestamp;P1;durP1;ratioP1;P2;durP2;ratioP2
46363;SDS011;32071;49.036;9.344;2023-08-24T00:02:00;11.57;;;10.57;;
46363;SDS011;32071;49.036;9.344;2023-08-24T00:04:27;10.77;;;9.87;;
46363;SDS011;32071;49.036;9.344;2023-08-24T00:06:53;11.17;;;10.07;;
46363;SDS011;32071;49.036;9.344;2023-08-24T00:09:18;11.10;;;10.20;;
46363;SDS011;32071;49.036;9.344;2023-08-24T00:11:44;10.97;;;9.70;;
46363;SDS011;32071;49.036;9.344;2023-08-24T00:14:10;11.87;;;10.67;;
46363;SDS011;32071;49.036;9.344;2023-08-24T00:16:36;11.60;;;10.60;;
46363;SDS011;32071;49.036;9.344;2023-08-24T00:19:01;13.13;;;11.93;;
46363;SDS011;32071;49.036;9.344;2023-08-24T00:21:27;12.60;;;10.73;;
46363;SDS011;32071;49.036;9.344;2023-08-24T00:23:53;11.70;;;10.57;;
46363;SDS011;32071;49.036;9.344;2023-08-24T00:26:19;13.03;;;11.60;;
46363;SDS011;32071;49.036;9.344;2023-08-24T00:28:45;11.17;;;10.17;;
46363;SDS011;32071;49.036;9.344;2023-08-24T00:31:11;11.17;;;10.03;;
46363;SDS011;32071;49.036;9.344;2023-08-24T00:33:37;11.20;;;10.10;;
46363;SDS011;32071;49.036;9.344;2023-08-24T00:36:03;13.20;;;10.60;;
46363;SDS011;32071;49.036;9.344;2023-08-24T00:38:30;12.90;;;11.70;;
46363;SDS011;32071;49.036;9.344;2023-08-24T00:40:56;12.70;;;11.27;;
46363;SDS011;32071;49.036;9.344;2023-08-24T00:43:23;12.10;;;11.00;;
46363;SDS011;32071;49.036;9.344;2023-08-24T00:45:53;12.03;;;10.87;;
46363;SDS011;32071;49.036;9.344;2023-08-24T00:48:21;11.90;;;10.80;;
46363;SDS011;32071;49.036;9.344;2023-08-24T00:50:55;12.87;;;10.97;;
46363;SDS011;32071;49.036;9.344;2023-08-24T00:53:21;11.50;;;10.47;;
46363;SDS011;32071;49.036;9.344;2023-08-24T00:55:50;10.70;;;9.70;;
46363;SDS011;32071;49.036;9.344;2023-08-24T00:58:16;11.47;;;10.30;;
46363;SDS011;32071;49.036;9.344;2023-08-24T01:00:43;11.77;;;10.67;;
46363;SDS011;32071;49.036;9.344;2023-08-24T01:03:09;11.60;;;10.60;;
46363;SDS011;32071;49.036;9.344;2023-08-24T01:05:36;11.17;;;10.20;;
46363;SDS011;32071;49.036;9.344;2023-08-24T01:08:02;12.00;;;10.60;;
46363;SDS011;32071;49.036;9.344;2023-08-24T01:10:30;11.70;;;10.50;;
46363;SDS011;32071;49.036;9.344;2023-08-24T01:13:09;11.10;;;10.10;;
46363;SDS011;32071;49.036;9.344;2023-08-24T01:15:48;12.40;;;11.10;;
46363;SDS011;32071;49.036;9.344;2023-08-24T01:18:25;12.10;;;11.00;;
46363;SDS011;32071;49.036;9.344;2023-08-24T01:20:53;13.80;;;11.20;;
46363;SDS011;32071;49.036;9.344;2023-08-24T01:26:14;11.13;;;10.13;;
46363;SDS011;32071;49.036;9.344;2023-08-24T01:28:42;11.67;;;10.67;;
46363;SDS011;32071;49.036;9.344;2023-08-24T01:31:09;11.47;;;10.47;;
46363;SDS011;32071;49.036;9.344;2023-08-24T01:33:35;12.03;;;11.00;;
46363;SDS011;32071;49.036;9.344;2023-08-24T01:36:01;16.07;;;11.90;;
46363;SDS011;32071;49.036;9.344;2023-08-24T01:38:27;12.03;;;10.87;;
46363;SDS011;32071;49.036;9.344;2023-08-24T01:40:54;11.40;;;10.40;;
46363;SDS011;32071;49.036;9.344;2023-08-24T01:43:31;13.57;;;10.47;;
46363;SDS011;32071;49.036;9.344;2023-08-24T01:46:01;11.70;;;10.70;;
46363;SDS011;32071;49.036;9.344;2023-08-24T01:48:29;11.73;;;10.47;;
46363;SDS011;32071;49.036;9.344;2023-08-24T01:50:59;12.40;;;11.03;;
46363;SDS011;32071;49.036;9.344;2023-08-24T01:53:27;11.43;;;10.33;;
46363;SDS011;32071;49.036;9.344;2023-08-24T01:55:56;11.77;;;10.77;;
46363;SDS011;32071;49.036;9.344;2023-08-24T01:58:21;11.10;;;10.10;;
46363;SDS011;32071;49.036;9.344;2023-08-24T02:00:47;11.60;;;10.60;;
46363;SDS011;32071;49.036;9.344;2023-08-24T02:03:12;11.00;;;9.90;;
46363;SDS011;32071;49.036;9.344;2023-08-24T02:05:38;11.00;;;9.90;;
46363;SDS011;32071;49.036;9.344;2023-08-24T02:08:03;11.93;;;10.83;;
46363;SDS011;32071;49.036;9.344;2023-08-24T02:10:29;12.10;;;10.90;;
46363;SDS011;32071;49.036;9.344;2023-08-24T02:12:55;14.27;;;10.87;;
46363;SDS011;32071;49.036;9.344;2023-08-24T02:15:20;11.80;;;9.90;;
46363;SDS011;32071;49.036;9.344;2023-08-24T02:17:46;10.73;;;9.73;;
46363;SDS011;32071;49.036;9.344;2023-08-24T02:20:11;11.30;;;10.20;;
46363;SDS011;32071;49.036;9.344;2023-08-24T02:22:37;11.37;;;10.30;;
46363;SDS011;32071;49.036;9.344;2023-08-24T02:25:04;11.50;;;10.50;;
46363;SDS011;32071;49.036;9.344;2023-08-24T02:27:30;11.33;;;10.27;;
46363;SDS011;32071;49.036;9.344;2023-08-24T02:29:57;12.23;;;11.03;;
46363;SDS011;32071;49.036;9.344;2023-08-24T02:32:22;12.07;;;11.00;;
46363;SDS011;32071;49.036;9.344;2023-08-24T02:34:48;12.37;;;10.83;;
46363;SDS011;32071;49.036;9.344;2023-08-24T02:37:13;11.90;;;10.80;;
46363;SDS011;32071;49.036;9.344;2023-08-24T02:39:39;11.00;;;10.00;;
46363;SDS011;32071;49.036;9.344;2023-08-24T02:42:04;11.93;;;10.83;;
46363;SDS011;32071;49.036;9.344;2023-08-24T02:44:30;12.60;;;11.30;;
46363;SDS011;32071;49.036;9.344;2023-08-24T02:46:56;11.83;;;10.73;;
46363;SDS011;32071;49.036;9.344;2023-08-24T02:49:22;12.30;;;11.17;;
46363;SDS011;32071;49.036;9.344;2023-08-24T02:51:48;12.43;;;10.70;;
46363;SDS011;32071;49.036;9.344;2023-08-24T02:54:14;12.60;;;10.00;;
46363;SDS011;32071;49.036;9.344;2023-08-24T02:56:39;12.37;;;10.80;;
46363;SDS011;32071;49.036;9.344;2023-08-24T02:59:05;12.50;;;11.20;;
46363;SDS011;32071;49.036;9.344;2023-08-24T03:01:31;11.13;;;9.97;;
46363;SDS011;32071;49.036;9.344;2023-08-24T03:03:56;11.80;;;10.80;;
46363;SDS011;32071;49.036;9.344;2023-08-24T03:06:22;12.10;;;10.90;;
46363;SDS011;32071;49.036;9.344;2023-08-24T03:08:51;11.43;;;10.33;;
46363;SDS011;32071;49.036;9.344;2023-08-24T03:11:17;14.07;;;11.03;;
46363;SDS011;32071;49.036;9.344;2023-08-24T03:13:42;11.07;;;10.07;;
46363;SDS011;32071;49.036;9.344;2023-08-24T03:16:08;12.53;;;11.23;;
46363;SDS011;32071;49.036;9.344;2023-08-24T03:18:34;11.87;;;10.70;;
46363;SDS011;32071;49.036;9.344;2023-08-24T03:20:59;10.87;;;9.90;;
46363;SDS011;32071;49.036;9.344;2023-08-24T03:23:26;11.40;;;10.30;;
46363;SDS011;32071;49.036;9.344;2023-08-24T03:25:51;10.93;;;9.93;;
46363;SDS011;32071;49.036;9.344;2023-08-24T03:28:17;11.17;;;10.17;;
46363;SDS011;32071;49.036;9.344;2023-08-24T03:30:47;10.67;;;9.77;;
46363;SDS011;32071;49.036;9.344;2023-08-24T03:33:13;11.60;;;10.43;;
46363;SDS011;32071;49.036;9.344;2023-08-24T03:35:39;12.00;;;10.90;;
46363;SDS011;32071;49.036;9.344;2023-08-24T03:38:05;16.83;;;10.70;;
46363;SDS011;32071;49.036;9.344;2023-08-24T03:40:31;12.03;;;10.97;;
46363;SDS011;32071;49.036;9.344;2023-08-24T03:42:56;11.67;;;10.47;;
46363;SDS011;32071;49.036;9.344;2023-08-24T03:45:22;11.23;;;10.33;;
46363;SDS011;32071;49.036;9.344;2023-08-24T03:47:48;11.63;;;10.53;;
46363;SDS011;32071;49.036;9.344;2023-08-24T03:50:14;11.77;;;10.77;;
46363;SDS011;32071;49.036;9.344;2023-08-24T03:52:40;11.80;;;10.00;;
46363;SDS011;32071;49.036;9.344;2023-08-24T03:55:06;10.67;;;9.63;;
46363;SDS011;32071;49.036;9.344;2023-08-24T03:57:32;11.57;;;10.47;;
46363;SDS011;32071;49.036;9.344;2023-08-24T03:59:58;12.27;;;11.07;;
46363;SDS011;32071;49.036;9.344;2023-08-24T04:02:23;11.90;;;10.90;;
46363;SDS011;32071;49.036;9.344;2023-08-24T04:04:52;11.37;;;9.43;;
46363;SDS011;32071;49.036;9.344;2023-08-24T04:07:18;10.73;;;9.73;;
46363;SDS011;32071;49.036;9.344;2023-08-24T04:09:44;10.57;;;9.50;;
46363;SDS011;32071;49.036;9.344;2023-08-24T04:12:10;11.37;;;10.30;;
46363;SDS011;32071;49.036;9.344;2023-08-24T04:14:36;12.50;;;10.93;;
46363;SDS011;32071;49.036;9.344;2023-08-24T04:17:01;11.20;;;10.10;;
46363;SDS011;32071;49.036;9.344;2023-08-24T04:19:27;14.50;;;10.07;;
46363;SDS011;32071;49.036;9.344;2023-08-24T04:21:53;11.87;;;9.47;;
46363;SDS011;32071;49.036;9.344;2023-08-24T04:24:18;12.57;;;10.10;;
46363;SDS011;32071;49.036;9.344;2023-08-24T04:26:44;11.60;;;9.80;;
46363;SDS011;32071;49.036;9.344;2023-08-24T04:29:09;10.83;;;9.70;;
46363;SDS011;32071;49.036;9.344;2023-08-24T04:31:35;11.17;;;10.10;;
46363;SDS011;32071;49.036;9.344;2023-08-24T04:34:02;11.00;;;10.10;;
46363;SDS011;32071;49.036;9.344;2023-08-24T04:36:28;10.77;;;9.80;;
46363;SDS011;32071;49.036;9.344;2023-08-24T04:38:54;10.27;;;9.33;;
46363;SDS011;32071;49.036;9.344;2023-08-24T04:41:20;11.50;;;10.40;;
46363;SDS011;32071;49.036;9.344;2023-08-24T04:43:45;11.27;;;10.37;;
46363;SDS011;32071;49.036;9.344;2023-08-24T04:46:11;11.40;;;10.30;;
46363;SDS011;32071;49.036;9.344;2023-08-24T04:48:37;11.57;;;10.50;;
46363;SDS011;32071;49.036;9.344;2023-08-24T04:51:02;10.83;;;9.70;;
46363;SDS011;32071;49.036;9.344;2023-08-24T04:53:28;10.53;;;9.53;;
46363;SDS011;32071;49.036;9.344;2023-08-24T04:55:54;10.40;;;9.50;;
46363;SDS011;32071;49.036;9.344;2023-08-24T04:58:19;11.83;;;9.90;;
46363;SDS011;32071;49.036;9.344;2023-08-24T05:00:45;10.60;;;9.60;;
46363;SDS011;32071;49.036;9.344;2023-08-24T05:03:11;11.17;;;9.80;;
46363;SDS011;32071;49.036;9.344;2023-08-24T05:05:37;10.30;;;9.23;;
46363;SDS011;32071;49.036;9.344;2023-08-24T05:08:03;10.80;;;9.73;;
46363;SDS011;32071;49.036;9.344;2023-08-24T05:10:36;10.83;;;9.40;;
46363;SDS011;32071;49.036;9.344;2023-08-24T05:13:02;10.83;;;9.53;;
46363;SDS011;32071;49.036;9.344;2023-08-24T05:15:28;9.90;;;9.00;;
46363;SDS011;32071;49.036;9.344;2023-08-24T05:17:54;10.83;;;9.83;;
46363;SDS011;32071;49.036;9.344;2023-08-24T05:20:24;11.33;;;10.17;;
46363;SDS011;32071;49.036;9.344;2023-08-24T05:22:50;11.97;;;10.83;;
46363;SDS011;32071;49.036;9.344;2023-08-24T05:25:16;11.80;;;10.80;;
46363;SDS011;32071;49.036;9.344;2023-08-24T05:27:42;11.50;;;10.50;;
46363;SDS011;32071;49.036;9.344;2023-08-24T05:30:08;11.83;;;10.83;;
46363;SDS011;32071;49.036;9.344;2023-08-24T05:32:34;10.67;;;9.77;;
46363;SDS011;32071;49.036;9.344;2023-08-24T05:35:04;12.37;;;11.27;;
46363;SDS011;32071;49.036;9.344;2023-08-24T05:37:33;12.90;;;11.57;;
46363;SDS011;32071;49.036;9.344;2023-08-24T05:40:00;12.67;;;11.40;;
46363;SDS011;32071;49.036;9.344;2023-08-24T05:42:26;12.70;;;11.53;;
46363;SDS011;32071;49.036;9.344;2023-08-24T05:44:52;12.87;;;11.77;;
46363;SDS011;32071;49.036;9.344;2023-08-24T05:47:18;13.13;;;11.97;;
46363;SDS011;32071;49.036;9.344;2023-08-24T05:49:43;12.63;;;11.53;;
46363;SDS011;32071;49.036;9.344;2023-08-24T05:52:09;12.90;;;11.77;;
46363;SDS011;32071;49.036;9.344;2023-08-24T05:54:36;12.77;;;11.57;;
46363;SDS011;32071;49.036;9.344;2023-08-24T05:57:02;13.90;;;12.60;;
46363;SDS011;32071;49.036;9.344;2023-08-24T05:59:28;10.90;;;9.90;;
46363;SDS011;32071;49.036;9.344;2023-08-24T06:01:54;10.97;;;9.93;;
46363;SDS011;32071;49.036;9.344;2023-08-24T06:04:20;13.60;;;11.80;;
46363;SDS011;32071;49.036;9.344;2023-08-24T06:06:46;15.63;;;13.30;;
46363;SDS011;32071;49.036;9.344;2023-08-24T06:09:11;14.40;;;13.07;;
46363;SDS011;32071;49.036;9.344;2023-08-24T06:11:37;13.60;;;12.30;;
46363;SDS011;32071;49.036;9.344;2023-08-24T06:14:02;13.90;;;12.60;;
46363;SDS011;32071;49.036;9.344;2023-08-24T06:16:28;13.40;;;12.13;;
46363;SDS011;32071;49.036;9.344;2023-08-24T06:18:54;14.27;;;13.07;;
46363;SDS011;32071;49.036;9.344;2023-08-24T06:21:20;15.67;;;14.13;;
46363;SDS011;32071;49.036;9.344;2023-08-24T06:23:45;15.43;;;12.70;;
46363;SDS011;32071;49.036;9.344;2023-08-24T06:26:12;15.70;;;12.70;;
46363;SDS011;32071;49.036;9.344;2023-08-24T06:28:38;17.17;;;12.73;;
46363;SDS011;32071;49.036;9.344;2023-08-24T06:31:04;14.17;;;12.60;;
46363;SDS011;32071;49.036;9.344;2023-08-24T06:33:33;14.30;;;12.97;;
46363;SDS011;32071;49.036;9.344;2023-08-24T06:35:59;14.00;;;12.30;;
46363;SDS011;32071;49.036;9.344;2023-08-24T06:38:25;13.70;;;12.50;;
46363;SDS011;32071;49.036;9.344;2023-08-24T06:40:50;14.50;;;13.07;;
46363;SDS011;32071;49.036;9.344;2023-08-24T06:43:16;14.93;;;13.27;;
46363;SDS011;32071;49.036;9.344;2023-08-24T06:45:43;14.17;;;12.70;;
46363;SDS011;32071;49.036;9.344;2023-08-24T06:48:09;16.33;;;8.97;;
46363;SDS011;32071;49.036;9.344;2023-08-24T06:50:35;10.00;;;9.10;;
46363;SDS011;32071;49.036;9.344;2023-08-24T06:53:01;10.70;;;9.70;;
46363;SDS011;32071;49.036;9.344;2023-08-24T06:55:28;11.53;;;10.50;;
46363;SDS011;32071;49.036;9.344;2023-08-24T06:57:54;11.97;;;10.73;;
46363;SDS011;32071;49.036;9.344;2023-08-24T07:00:20;14.07;;;11.60;;
46363;SDS011;32071;49.036;9.344;2023-08-24T07:02:46;12.60;;;11.50;;
46363;SDS011;32071;49.036;9.344;2023-08-24T07:05:13;13.03;;;11.40;;
46363;SDS011;32071;49.036;9.344;2023-08-24T07:07:39;13.20;;;11.63;;
46363;SDS011;32071;49.036;9.344;2023-08-24T07:10:08;12.87;;;11.57;;
46363;SDS011;32071;49.036;9.344;2023-08-24T07:12:34;13.17;;;11.87;;
46363;SDS011;32071;49.036;9.344;2023-08-24T07:14:59;12.23;;;11.03;;
46363;SDS011;32071;49.036;9.344;2023-08-24T07:17:25;13.00;;;11.80;;
46363;SDS011;32071;49.036;9.344;2023-08-24T07:19:50;12.63;;;11.03;;
46363;SDS011;32071;49.036;9.344;2023-08-24T07:22:16;11.10;;;10.10;;
46363;SDS011;32071;49.036;9.344;2023-08-24T07:24:42;17.20;;;10.97;;
46363;SDS011;32071;49.036;9.344;2023-08-24T07:27:08;12.43;;;11.20;;
46363;SDS011;32071;49.036;9.344;2023-08-24T07:29:33;11.70;;;10.60;;
46363;SDS011;32071;49.036;9.344;2023-08-24T07:31:59;12.00;;;10.80;;
46363;SDS011;32071;49.036;9.344;2023-08-24T07:34:25;11.67;;;10.57;;
46363;SDS011;32071;49.036;9.344;2023-08-24T07:36:51;12.33;;;10.30;;
46363;SDS011;32071;49.036;9.344;2023-08-24T07:39:16;10.73;;;9.83;;
46363;SDS011;32071;49.036;9.344;2023-08-24T07:41:42;10.33;;;9.30;;
46363;SDS011;32071;49.036;9.344;2023-08-24T07:44:09;10.67;;;9.57;;
46363;SDS011;32071;49.036;9.344;2023-08-24T07:46:35;10.30;;;9.40;;
46363;SDS011;32071;49.036;9.344;2023-08-24T07:49:00;9.97;;;9.03;;
46363;SDS011;32071;49.036;9.344;2023-08-24T07:51:26;11.70;;;10.50;;
46363;SDS011;32071;49.036;9.344;2023-08-24T07:53:53;10.03;;;9.33;;
46363;SDS011;32071;49.036;9.344;2023-08-24T07:56:18;10.30;;;9.30;;
46363;SDS011;32071;49.036;9.344;2023-08-24T07:58:44;11.07;;;10.10;;
46363;SDS011;32071;49.036;9.344;2023-08-24T08:01:10;10.50;;;9.70;;
46363;SDS011;32071;49.036;9.344;2023-08-24T08:03:36;11.07;;;9.63;;
46363;SDS011;32071;49.036;9.344;2023-08-24T08:06:01;12.40;;;11.40;;
46363;SDS011;32071;49.036;9.344;2023-08-24T08:08:28;10.90;;;9.90;;
46363;SDS011;32071;49.036;9.344;2023-08-24T08:11:00;10.13;;;9.13;;
46363;SDS011;32071;49.036;9.344;2023-08-24T08:13:27;9.10;;;8.30;;
46363;SDS011;32071;49.036;9.344;2023-08-24T08:15:54;9.77;;;8.70;;
46363;SDS011;32071;49.036;9.344;2023-08-24T08:18:26;10.43;;;9.53;;
46363;SDS011;32071;49.036;9.344;2023-08-24T08:20:51;9.73;;;9.00;;
46363;SDS011;32071;49.036;9.344;2023-08-24T08:23:17;9.70;;;8.90;;
46363;SDS011;32071;49.036;9.344;2023-08-24T08:25:43;10.67;;;9.80;;
46363;SDS011;32071;49.036;9.344;2023-08-24T08:28:08;11.70;;;9.57;;
46363;SDS011;32071;49.036;9.344;2023-08-24T08:30:34;10.30;;;9.20;;
46363;SDS011;32071;49.036;9.344;2023-08-24T08:32:59;9.60;;;8.73;;
46363;SDS011;32071;49.036;9.344;2023-08-24T08:35:26;10.50;;;9.50;;
46363;SDS011;32071;49.036;9.344;2023-08-24T08:37:51;9.90;;;9.00;;
46363;SDS011;32071;49.036;9.344;2023-08-24T08:40:18;9.77;;;8.80;;
46363;SDS011;32071;49.036;9.344;2023-08-24T08:42:44;10.03;;;8.53;;
46363;SDS011;32071;49.036;9.344;2023-08-24T08:45:10;11.07;;;9.70;;
46363;SDS011;32071;49.036;9.344;2023-08-24T08:47:37;9.83;;;9.00;;
46363;SDS011;32071;49.036;9.344;2023-08-24T08:50:03;10.30;;;9.40;;
46363;SDS011;32071;49.036;9.344;2023-08-24T08:52:29;9.60;;;8.70;;
46363;SDS011;32071;49.036;9.344;2023-08-24T08:54:56;12.30;;;8.70;;
46363;SDS011;32071;49.036;9.344;2023-08-24T08:57:22;10.20;;;9.30;;
46363;SDS011;32071;49.036;9.344;2023-08-24T08:59:49;9.33;;;8.53;;
46363;SDS011;32071;49.036;9.344;2023-08-24T09:02:17;10.57;;;9.67;;
46363;SDS011;32071;49.036;9.344;2023-08-24T09:04:44;9.43;;;8.73;;
46363;SDS011;32071;49.036;9.344;2023-08-24T09:07:11;10.20;;;9.30;;
46363;SDS011;32071;49.036;9.344;2023-08-24T09:09:40;10.40;;;9.30;;
46363;SDS011;32071;49.036;9.344;2023-08-24T09:12:06;10.23;;;9.53;;
46363;SDS011;32071;49.036;9.344;2023-08-24T09:14:32;10.20;;;9.30;;
46363;SDS011;32071;49.036;9.344;2023-08-24T09:16:58;9.77;;;9.07;;
46363;SDS011;32071;49.036;9.344;2023-08-24T09:19:27;10.50;;;9.60;;
46363;SDS011;32071;49.036;9.344;2023-08-24T09:21:56;9.60;;;8.70;;
46363;SDS011;32071;49.036;9.344;2023-08-24T09:24:28;10.13;;;9.33;;
46363;SDS011;32071;49.036;9.344;2023-08-24T09:26:56;10.03;;;9.03;;
46363;SDS011;32071;49.036;9.344;2023-08-24T09:29:21;11.53;;;10.30;;
46363;SDS011;32071;49.036;9.344;2023-08-24T09:31:47;11.73;;;9.90;;
46363;SDS011;32071;49.036;9.344;2023-08-24T09:34:18;10.00;;;9.20;;
46363;SDS011;32071;49.036;9.344;2023-08-24T09:36:45;10.70;;;9.60;;
46363;SDS011;32071;49.036;9.344;2023-08-24T09:39:11;12.17;;;10.47;;
46363;SDS011;32071;49.036;9.344;2023-08-24T09:41:38;11.10;;;10.10;;
46363;SDS011;32071;49.036;9.344;2023-08-24T09:44:12;10.40;;;9.60;;
46363;SDS011;32071;49.036;9.344;2023-08-24T09:46:38;10.70;;;9.60;;
46363;SDS011;32071;49.036;9.344;2023-08-24T09:49:06;10.60;;;9.70;;
46363;SDS011;32071;49.036;9.344;2023-08-24T09:51:33;10.27;;;9.07;;
46363;SDS011;32071;49.036;9.344;2023-08-24T09:54:02;10.87;;;9.47;;
46363;SDS011;32071;49.036;9.344;2023-08-24T09:56:36;10.97;;;10.13;;
46363;SDS011;32071;49.036;9.344;2023-08-24T09:59:13;10.63;;;9.60;;
46363;SDS011;32071;49.036;9.344;2023-08-24T10:01:42;11.73;;;9.73;;
46363;SDS011;32071;49.036;9.344;2023-08-24T10:04:09;10.97;;;10.07;;
46363;SDS011;32071;49.036;9.344;2023-08-24T10:06:37;10.37;;;9.57;;
46363;SDS011;32071;49.036;9.344;2023-08-24T10:09:06;9.53;;;8.90;;
46363;SDS011;32071;49.036;9.344;2023-08-24T10:11:34;10.17;;;9.37;;
46363;SDS011;32071;49.036;9.344;2023-08-24T10:17:04;10.57;;;9.63;;
46363;SDS011;32071;49.036;9.344;2023-08-24T10:19:31;9.80;;;9.00;;
46363;SDS011;32071;49.036;9.344;2023-08-24T10:21:57;9.83;;;9.13;;
46363;SDS011;32071;49.036;9.344;2023-08-24T10:24:25;9.80;;;9.10;;
46363;SDS011;32071;49.036;9.344;2023-08-24T10:26:51;9.67;;;8.80;;
46363;SDS011;32071;49.036;9.344;2023-08-24T10:29:19;9.93;;;9.03;;
46363;SDS011;32071;49.036;9.344;2023-08-24T10:31:45;10.97;;;9.87;;
46363;SDS011;32071;49.036;9.344;2023-08-24T10:34:13;10.27;;;9.27;;
46363;SDS011;32071;49.036;9.344;2023-08-24T10:36:39;9.87;;;9.07;;
46363;SDS011;32071;49.036;9.344;2023-08-24T10:39:05;9.70;;;8.90;;
46363;SDS011;32071;49.036;9.344;2023-08-24T10:41:47;10.73;;;9.63;;
46363;SDS011;32071;49.036;9.344;2023-08-24T10:47:05;9.70;;;8.90;;
46363;SDS011;32071;49.036;9.344;2023-08-24T10:49:39;10.17;;;9.27;;
46363;SDS011;32071;49.036;9.344;2023-08-24T10:54:47;10.80;;;9.50;;
46363;SDS011;32071;49.036;9.344;2023-08-24T11:00:13;10.60;;;9.80;;
46363;SDS011;32071;49.036;9.344;2023-08-24T11:10:23;9.87;;;8.90;;
46363;SDS011;32071;49.036;9.344;2023-08-24T11:13:06;10.40;;;9.60;;
46363;SDS011;32071;49.036;9.344;2023-08-24T11:15:42;10.83;;;9.87;;
46363;SDS011;32071;49.036;9.344;2023-08-24T11:20:44;11.87;;;10.00;;
46363;SDS011;32071;49.036;9.344;2023-08-24T11:23:10;9.97;;;9.27;;
46363;SDS011;32071;49.036;9.344;2023-08-24T11:25:36;10.17;;;9.37;;
46363;SDS011;32071;49.036;9.344;2023-08-24T11:28:03;10.17;;;9.37;;
46363;SDS011;32071;49.036;9.344;2023-08-24T11:30:30;10.80;;;9.90;;
46363;SDS011;32071;49.036;9.344;2023-08-24T11:32:57;11.00;;;10.10;;
46363;SDS011;32071;49.036;9.344;2023-08-24T11:35:23;10.83;;;9.93;;
46363;SDS011;32071;49.036;9.344;2023-08-24T11:37:57;11.17;;;10.17;;
46363;SDS011;32071;49.036;9.344;2023-08-24T11:40:23;9.93;;;9.07;;
46363;SDS011;32071;49.036;9.344;2023-08-24T11:42:58;13.37;;;10.10;;
46363;SDS011;32071;49.036;9.344;2023-08-24T11:45:29;10.60;;;9.70;;
46363;SDS011;32071;49.036;9.344;2023-08-24T11:47:57;9.60;;;8.93;;
46363;SDS011;32071;49.036;9.344;2023-08-24T11:50:24;10.40;;;9.43;;
46363;SDS011;32071;49.036;9.344;2023-08-24T11:52:50;10.20;;;9.47;;
46363;SDS011;32071;49.036;9.344;2023-08-24T11:55:17;10.13;;;9.33;;
46363;SDS011;32071;49.036;9.344;2023-08-24T11:57:43;10.80;;;9.80;;
46363;SDS011;32071;49.036;9.344;2023-08-24T12:00:09;10.93;;;9.93;;
46363;SDS011;32071;49.036;9.344;2023-08-24T12:02:38;10.77;;;9.77;;
46363;SDS011;32071;49.036;9.344;2023-08-24T12:05:07;11.10;;;9.50;;
46363;SDS011;32071;49.036;9.344;2023-08-24T12:07:44;10.87;;;9.77;;
46363;SDS011;32071;49.036;9.344;2023-08-24T12:10:10;10.87;;;9.93;;
46363;SDS011;32071;49.036;9.344;2023-08-24T12:12:37;10.30;;;9.60;;
46363;SDS011;32071;49.036;9.344;2023-08-24T12:15:03;12.20;;;11.07;;
46363;SDS011;32071;49.036;9.344;2023-08-24T12:17:29;11.40;;;10.40;;
46363;SDS011;32071;49.036;9.344;2023-08-24T12:19:58;10.07;;;9.03;;
46363;SDS011;32071;49.036;9.344;2023-08-24T12:22:25;11.10;;;10.10;;
46363;SDS011;32071;49.036;9.344;2023-08-24T12:24:51;11.07;;;10.07;;
46363;SDS011;32071;49.036;9.344;2023-08-24T12:27:17;12.07;;;11.07;;
46363;SDS011;32071;49.036;9.344;2023-08-24T12:29:47;10.80;;;9.80;;
46363;SDS011;32071;49.036;9.344;2023-08-24T12:32:13;12.00;;;10.00;;
46363;SDS011;32071;49.036;9.344;2023-08-24T12:34:40;10.80;;;9.93;;
46363;SDS011;32071;49.036;9.344;2023-08-24T12:37:06;11.40;;;10.60;;
46363;SDS011;32071;49.036;9.344;2023-08-24T12:39:34;11.53;;;10.47;;
46363;SDS011;32071;49.036;9.344;2023-08-24T12:42:01;10.10;;;9.07;;
46363;SDS011;32071;49.036;9.344;2023-08-24T12:44:27;10.83;;;10.03;;
46363;SDS011;32071;49.036;9.344;2023-08-24T12:46:53;10.07;;;9.17;;
46363;SDS011;32071;49.036;9.344;2023-08-24T12:49:18;10.83;;;9.93;;
46363;SDS011;32071;49.036;9.344;2023-08-24T12:51:44;9.60;;;8.90;;
46363;SDS011;32071;49.036;9.344;2023-08-24T12:54:09;10.93;;;9.93;;
46363;SDS011;32071;49.036;9.344;2023-08-24T12:56:35;9.57;;;8.87;;
46363;SDS011;32071;49.036;9.344;2023-08-24T12:59:00;11.70;;;10.50;;
46363;SDS011;32071;49.036;9.344;2023-08-24T13:01:26;10.63;;;9.80;;
46363;SDS011;32071;49.036;9.344;2023-08-24T13:03:52;9.80;;;9.10;;
46363;SDS011;32071;49.036;9.344;2023-08-24T13:06:18;9.97;;;9.17;;
46363;SDS011;32071;49.036;9.344;2023-08-24T13:08:43;10.93;;;10.03;;
46363;SDS011;32071;49.036;9.344;2023-08-24T13:11:09;10.63;;;9.83;;
46363;SDS011;32071;49.036;9.344;2023-08-24T13:13:36;12.77;;;10.60;;
46363;SDS011;32071;49.036;9.344;2023-08-24T13:16:02;10.70;;;9.70;;
46363;SDS011;32071;49.036;9.344;2023-08-24T13:18:27;10.23;;;9.37;;
46363;SDS011;32071;49.036;9.344;2023-08-24T13:20:53;10.43;;;9.53;;
46363;SDS011;32071;49.036;9.344;2023-08-24T13:23:18;10.70;;;9.73;;
46363;SDS011;32071;49.036;9.344;2023-08-24T13:25:44;10.03;;;9.23;;
46363;SDS011;32071;49.036;9.344;2023-08-24T13:28:10;10.93;;;10.03;;
46363;SDS011;32071;49.036;9.344;2023-08-24T13:30:35;11.27;;;10.07;;
46363;SDS011;32071;49.036;9.344;2023-08-24T13:33:01;14.90;;;10.63;;
46363;SDS011;32071;49.036;9.344;2023-08-24T13:35:26;11.70;;;9.87;;
46363;SDS011;32071;49.036;9.344;2023-08-24T13:37:52;10.80;;;10.00;;
46363;SDS011;32071;49.036;9.344;2023-08-24T13:40:17;10.30;;;9.50;;
46363;SDS011;32071;49.036;9.344;2023-08-24T13:42:44;10.47;;;9.67;;
46363;SDS011;32071;49.036;9.344;2023-08-24T13:45:10;10.27;;;9.27;;
46363;SDS011;32071;49.036;9.344;2023-08-24T13:47:35;10.70;;;9.80;;
46363;SDS011;32071;49.036;9.344;2023-08-24T13:50:01;11.60;;;10.67;;
46363;SDS011;32071;49.036;9.344;2023-08-24T13:52:28;10.73;;;9.90;;
46363;SDS011;32071;49.036;9.344;2023-08-24T13:54:53;11.67;;;10.53;;
46363;SDS011;32071;49.036;9.344;2023-08-24T13:57:19;11.83;;;10.93;;
46363;SDS011;32071;49.036;9.344;2023-08-24T13:59:45;11.53;;;10.63;;
46363;SDS011;32071;49.036;9.344;2023-08-24T14:02:10;11.57;;;10.30;;
46363;SDS011;32071;49.036;9.344;2023-08-24T14:04:37;11.00;;;10.00;;
46363;SDS011;32071;49.036;9.344;2023-08-24T14:07:03;10.37;;;9.57;;
46363;SDS011;32071;49.036;9.344;2023-08-24T14:09:28;10.90;;;10.00;;
46363;SDS011;32071;49.036;9.344;2023-08-24T14:11:54;12.93;;;9.67;;
46363;SDS011;32071;49.036;9.344;2023-08-24T14:14:20;11.80;;;10.70;;
46363;SDS011;32071;49.036;9.344;2023-08-24T14:16:45;11.50;;;10.43;;
46363;SDS011;32071;49.036;9.344;2023-08-24T14:19:11;11.80;;;10.87;;
46363;SDS011;32071;49.036;9.344;2023-08-24T14:21:36;14.07;;;10.50;;
46363;SDS011;32071;49.036;9.344;2023-08-24T14:24:02;10.83;;;10.00;;
46363;SDS011;32071;49.036;9.344;2023-08-24T14:26:28;10.50;;;9.40;;
46363;SDS011;32071;49.036;9.344;2023-08-24T14:28:54;12.13;;;10.90;;
46363;SDS011;32071;49.036;9.344;2023-08-24T14:31:22;11.57;;;10.40;;
46363;SDS011;32071;49.036;9.344;2023-08-24T14:33:48;11.00;;;10.20;;
46363;SDS011;32071;49.036;9.344;2023-08-24T14:36:16;12.50;;;10.17;;
46363;SDS011;32071;49.036;9.344;2023-08-24T14:38:42;11.07;;;10.07;;
46363;SDS011;32071;49.036;9.344;2023-08-24T14:41:10;11.73;;;10.10;;
46363;SDS011;32071;49.036;9.344;2023-08-24T14:43:37;11.60;;;10.60;;
46363;SDS011;32071;49.036;9.344;2023-08-24T14:46:03;11.03;;;10.20;;
46363;SDS011;32071;49.036;9.344;2023-08-24T14:48:29;10.07;;;9.47;;
46363;SDS011;32071;49.036;9.344;2023-08-24T14:50:55;11.83;;;10.83;;